Time;durP1;ratioP1;P1;durP2;ratioP2;P2;SDS_P1;SDS_P2;PMS_P1;PMS_P2;Temp;Humidity;BMP_temperature;BMP_pressure;BME280_temperature;BME280_humidity;BME280_pressure;Samples;Min_cycle;Max_cycle;Signal;HPM_P1;HPM_P2
2023/01/12 00:08:22;;;;;;;4.50;1.67;;;;;;;16.06;65.36;100273.25;20248637;29;20103;-87
2023/01/12 00:18:23;;;;;;;3.10;1.20;;;;;;;16.13;65.19;100284.28;20236840;29;20499;-87
2023/01/12 00:28:25;;;;;;;3.00;1.52;;;;;;;16.13;65.37;100281.59;20202926;29;20074;-87
2023/01/12 00:38:26;;;;;;;3.50;1.20;;;;;;;16.12;65.38;100263.78;20210477;29;20064;-85
2023/01/12 00:48:29;;;;;;;4.40;1.30;;;;;;;15.85;65.36;100208.91;20218525;29;20120;-87
2023/01/12 00:58:31;;;;;;;3.72;1.15;;;;;;;15.98;65.44;100240.91;20226505;29;20057;-87
2023/01/12 01:08:35;;;;;;;4.10;1.20;;;;;;;16.12;65.39;100258.41;20230203;29;20049;-87
2023/01/12 01:18:38;;;;;;;3.37;1.00;;;;;;;16.13;65.36;100265.50;20226583;29;20566;-87
2023/01/12 01:28:40;;;;;;;3.88;1.25;;;;;;;16.13;65.61;100248.53;20223619;29;20044;-87
2023/01/12 01:38:46;;;;;;;3.42;1.25;;;;;;;15.99;65.47;100218.44;20216717;29;20052;-87
2023/01/12 01:48:47;;;;;;;2.47;0.93;;;;;;;16.13;65.45;100210.94;20216297;29;20053;-88
2023/01/12 01:58:50;;;;;;;2.72;1.05;;;;;;;16.12;65.45;100206.53;20193843;29;20049;-88
2023/01/12 02:08:57;;;;;;;3.88;1.38;;;;;;;16.02;65.50;100183.25;20207629;29;20056;-88
2023/01/12 02:19:17;;;;;;;3.58;1.17;;;;;;;16.12;65.56;100171.63;20221525;29;20040;-87
2023/01/12 02:29:59;;;;;;;3.63;1.17;;;;;;;16.12;65.57;100166.28;20226033;29;20693;-87
2023/01/12 02:40:25;;;;;;;2.67;1.02;;;;;;;16.12;65.63;100139.41;20229017;29;20403;-87
2023/01/12 02:50:35;;;;;;;5.18;1.10;;;;;;;15.89;65.72;100075.28;20218128;29;20052;-86
2023/01/12 03:00:38;;;;;;;2.97;1.10;;;;;;;16.12;65.77;100099.13;20235230;29;20068;-87
2023/01/12 03:11:06;;;;;;;4.20;1.25;;;;;;;16.11;65.86;100075.97;20216062;29;20882;-87
2023/01/12 03:21:16;;;;;;;2.72;0.93;;;;;;;16.11;65.96;100062.53;20208857;29;20059;-87
2023/01/12 03:31:17;;;;;;;3.30;1.52;;;;;;;16.07;66.27;100043.19;20215119;29;20423;-87
2023/01/12 03:41:26;;;;;;;3.17;1.00;;;;;;;15.95;66.25;100010.31;20237779;29;20537;-88
2023/01/12 03:51:34;;;;;;;3.28;1.00;;;;;;;16.11;66.28;100006.16;20225524;29;20061;-88
2023/01/12 04:01:35;;;;;;;2.53;1.33;;;;;;;16.10;66.55;99978.44;20243060;29;20052;-87
2023/01/12 04:32:17;;;;;;;2.28;0.80;;;;;;;16.12;66.61;99887.03;20223824;29;20487;-87
2023/01/12 04:52:39;;;;;;;3.47;1.02;;;;;;;15.98;66.76;99846.25;20229061;29;20060;-87
2023/01/12 05:02:40;;;;;;;1.45;0.70;;;;;;;15.82;66.64;99777.09;20241474;29;20060;-87
2023/01/12 05:12:43;;;;;;;1.08;0.63;;;;;;;16.10;66.63;99771.69;20223794;29;20052;-87
2023/01/12 05:22:44;;;;;;;2.00;0.80;;;;;;;16.11;66.74;99721.53;20239757;29;20431;-87
2023/01/12 05:32:46;;;;;;;2.13;0.70;;;;;;;16.05;66.43;99664.78;20236189;29;20051;-88
2023/01/12 05:53:10;;;;;;;2.53;0.70;;;;;;;15.93;66.65;99604.28;20196024;29;20055;-87
2023/01/12 06:03:11;;;;;;;1.27;0.60;;;;;;;16.11;66.75;99616.84;20224883;29;22040;-87
2023/01/12 06:23:33;;;;;;;1.40;0.60;;;;;;;15.84;66.79;99568.47;20189699;29;20116;-87
2023/01/12 06:33:36;;;;;;;1.55;0.50;;;;;;;16.04;66.98;99609.41;20212639;29;20053;-87
2023/01/12 06:43:38;;;;;;;2.05;0.70;;;;;;;16.05;67.02;99618.28;20180190;29;20508;-91
2023/01/12 06:53:40;;;;;;;0.80;0.40;;;;;;;16.07;67.15;99592.13;20182980;29;20076;-93
2023/01/12 07:03:41;;;;;;;1.83;0.40;;;;;;;16.26;68.22;99599.16;20206803;29;20040;-91
2023/01/12 07:13:43;;;;;;;0.77;0.30;;;;;;;16.29;68.03;99590.78;20223500;29;20052;-88
2023/01/12 07:23:44;;;;;;;0.40;0.30;;;;;;;16.09;68.01;99553.41;20202968;29;20057;-88
2023/01/12 07:33:46;;;;;;;0.85;0.57;;;;;;;16.43;67.86;99626.13;20190912;29;20052;-90
2023/01/12 07:43:47;;;;;;;0.40;0.30;;;;;;;16.46;67.83;99628.50;20224767;29;20069;-90
2023/01/12 07:53:49;;;;;;;1.30;0.43;;;;;;;16.43;67.70;99620.75;20189167;29;20532;-88
2023/01/12 08:03:50;;;;;;;0.50;0.30;;;;;;;16.50;67.70;99640.63;20223463;29;20135;-88
2023/01/12 08:13:55;;;;;;;0.50;0.35;;;;;;;16.52;67.86;99649.38;20206525;29;20061;-88
2023/01/12 08:23:59;;;;;;;0.70;0.30;;;;;;;16.56;68.43;99666.84;20197277;29;20068;-84
2023/01/12 08:34:01;;;;;;;0.75;0.32;;;;;;;16.63;70.60;99684.03;20201690;29;20097;-86
2023/01/12 08:44:08;;;;;;;0.75;0.40;;;;;;;16.74;74.98;99692.81;20166437;29;20057;-88
2023/01/12 08:54:12;;;;;;;0.57;0.30;;;;;;;16.36;76.30;99631.28;20198587;29;20064;-88
2023/01/12 09:04:14;;;;;;;0.80;0.40;;;;;;;16.88;78.35;99719.13;20186352;29;20056;-87
2023/01/12 09:14:16;;;;;;;0.73;0.50;;;;;;;16.93;78.81;99718.63;20206533;29;20511;-85
2023/01/12 09:24:17;;;;;;;1.58;0.43;;;;;;;16.86;77.27;99739.09;20193654;29;20511;-87
2023/01/12 09:34:19;;;;;;;4.15;0.68;;;;;;;16.76;76.60;99747.25;20216992;29;20064;-95
2023/01/12 09:55:04;;;;;;;7.28;1.38;;;;;;;16.66;77.80;99790.38;20229312;29;20055;-83
2023/01/12 10:05:15;;;;;;;10.35;1.20;;;;;;;16.41;77.88;99778.56;20189817;29;20060;-88
2023/01/12 10:15:20;;;;;;;5.38;1.20;;;;;;;16.56;77.58;99808.38;20188379;29;20503;-85
2023/01/12 10:25:39;;;;;;;3.47;1.00;;;;;;;16.36;77.47;99787.94;20205926;29;20067;-89
2023/01/12 10:36:01;;;;;;;4.30;1.35;;;;;;;16.42;77.89;99834.81;20214942;29;20040;-91
2023/01/12 10:46:05;;;;;;;6.93;1.50;;;;;;;16.48;78.01;99834.19;20168499;29;20055;-90
2023/01/12 10:56:12;;;;;;;7.15;1.52;;;;;;;16.40;78.07;99828.75;20200953;29;20508;-82
2023/01/12 11:06:29;;;;;;;6.57;1.50;;;;;;;16.44;77.93;99830.13;20172213;29;20491;-84
2023/01/12 11:16:33;;;;;;;3.58;1.15;;;;;;;16.40;77.82;99830.59;20192226;29;20052;-85
2023/01/12 11:26:50;;;;;;;2.60;1.10;;;;;;;16.24;77.53;99821.34;20239145;29;20066;-86
2023/01/12 11:36:58;;;;;;;3.22;1.20;;;;;;;16.43;77.37;99859.84;20216080;29;20120;-86
2023/01/12 11:47:09;;;;;;;4.93;1.60;;;;;;;16.42;77.43;99868.91;20207894;29;20048;-86
2023/01/12 11:57:26;;;;;;;4.85;1.10;;;;;;;16.41;77.36;99849.22;20219327;29;20098;-86
2023/01/12 12:07:34;;;;;;;3.83;1.13;;;;;;;16.32;76.98;99845.59;20231083;29;20064;-85
2023/01/12 12:17:56;;;;;;;5.20;1.42;;;;;;;16.39;76.96;99835.13;20228212;29;20060;-85
2023/01/12 12:28:07;;;;;;;4.75;1.40;;;;;;;16.40;76.62;99857.47;20245555;29;20049;-85
2023/01/12 12:38:25;;;;;;;4.72;1.30;;;;;;;16.36;76.52;99852.41;20227868;29;20425;-85
2023/01/12 12:48:36;;;;;;;;;;;;;;;16.38;76.57;99868.34;20243866;29;20061;-85
2023/01/12 12:58:41;;;;;;;2.45;1.30;;;;;;;16.14;76.25;99815.22;20242631;29;19924;-85
2023/01/12 13:08:42;;;;;;;5.30;1.43;;;;;;;16.35;76.56;99839.97;20242442;29;20055;-86
2023/01/12 13:18:47;;;;;;;3.65;1.25;;;;;;;16.35;76.33;99839.97;20224631;29;20100;-85
2023/01/12 13:29:26;;;;;;;4.20;1.13;;;;;;;16.34;76.33;99830.19;20223499;29;20104;-86
2023/01/12 13:39:28;;;;;;;4.43;1.42;;;;;;;16.35;76.04;99831.03;20239522;29;20083;-86
2023/01/12 13:49:33;;;;;;;3.35;1.25;;;;;;;16.33;75.92;99823.13;20222330;29;20497;-85
2023/01/12 13:59:34;;;;;;;4.30;1.03;;;;;;;16.33;75.87;99833.88;20222272;29;20056;-85
2023/01/12 14:10:01;;;;;;;4.82;1.15;;;;;;;16.33;75.91;99823.13;20238113;29;20574;-85
2023/01/12 14:20:13;;;;;;;4.88;1.20;;;;;;;16.13;75.83;99786.69;20235738;29;20048;-85
2023/01/12 14:30:14;;;;;;;3.30;0.95;;;;;;;16.14;75.85;99791.03;20204112;29;20079;-86
2023/01/12 14:40:19;;;;;;;3.33;0.95;;;;;;;16.31;76.15;99811.69;20203219;29;20056;-85
2023/01/12 14:50:21;;;;;;;2.07;1.00;;;;;;;16.31;75.89;99794.75;20204837;29;20068;-85
2023/01/12 15:00:28;;;;;;;2.58;0.77;;;;;;;16.31;76.13;99784.00;20218210;29;20044;-85
2023/01/12 15:10:38;;;;;;;2.75;1.02;;;;;;;16.30;75.91;99776.94;20202695;29;20052;-85
2023/01/12 15:31:09;;;;;;;1.83;0.70;;;;;;;16.16;76.00;99743.41;20235401;29;20068;-82
2023/01/12 15:41:16;;;;;;;2.13;1.17;;;;;;;16.03;75.87;99712.44;20232401;29;20467;-85
2023/01/12 15:51:18;;;;;;;0.98;0.60;;;;;;;16.28;75.55;99747.53;20232066;29;20465;-86
2023/01/12 16:01:19;;;;;;;2.58;0.65;;;;;;;16.29;75.87;99745.72;20244015;29;20415;-95
2023/01/12 16:11:23;;;;;;;1.77;0.40;;;;;;;16.08;75.55;99715.50;20230025;29;20452;-94
2023/01/12 16:21:26;;;;;;;0.63;0.35;;;;;;;16.32;76.11;99738.19;20210007;29;20051;-86
2023/01/12 16:31:28;;;;;;;1.13;0.60;;;;;;;16.44;76.06;99746.03;20221736;29;20271;-87
2023/01/12 16:41:30;;;;;;;0.90;0.40;;;;;;;16.37;75.77;99719.78;20229507;29;20428;-85
2023/01/12 16:51:33;;;;;;;5.28;1.80;;;;;;;16.57;75.38;99724.09;20214068;29;20077;-85
2023/01/12 17:01:35;;;;;;;11.35;2.35;;;;;;;16.56;76.38;99711.66;20217701;29;20166;-86
2023/01/12 17:11:39;;;;;;;9.82;2.30;;;;;;;16.68;77.07;99716.63;20211660;29;20148;-86
2023/01/12 17:21:41;;;;;;;12.17;2.90;;;;;;;16.72;77.58;99701.06;20169189;29;20052;-85
2023/01/12 17:31:43;;;;;;;13.65;2.58;;;;;;;16.75;77.84;99710.63;20166509;29;20048;-84
2023/01/12 17:52:05;;;;;;;8.48;2.13;;;;;;;16.80;77.87;99708.34;20212736;29;20056;-90
2023/01/12 18:02:09;;;;;;;5.65;1.80;;;;;;;16.52;78.11;99687.81;20227470;29;20067;-88
2023/01/12 18:12:11;;;;;;;4.77;1.50;;;;;;;16.85;78.05;99734.72;20218896;29;20139;-89
2023/01/12 18:22:13;;;;;;;4.90;1.60;;;;;;;16.87;77.75;99724.66;20218869;29;20044;-89
2023/01/12 18:32:14;;;;;;;5.68;1.42;;;;;;;16.79;77.44;99717.38;20218900;29;20390;-88
2023/01/12 19:02:57;;;;;;;4.45;1.08;;;;;;;16.92;76.96;99723.19;20223101;29;20048;-88
2023/01/12 19:33:55;;;;;;;3.15;0.90;;;;;;;16.75;76.49;99705.25;20207121;29;20507;-86
2023/01/12 19:44:00;;;;;;;1.77;0.90;;;;;;;16.68;76.68;99667.44;20234034;29;20057;-86
2023/01/12 19:54:01;;;;;;;3.50;1.33;;;;;;;16.50;76.47;99659.44;20233935;29;20562;-86
2023/01/12 20:04:03;;;;;;;3.03;1.00;;;;;;;16.45;76.88;99667.13;20217083;29;20060;-86
2023/01/12 20:14:04;;;;;;;2.15;0.60;;;;;;;16.41;76.84;99655.00;20215283;29;20052;-86
2023/01/12 20:24:06;;;;;;;1.33;0.80;;;;;;;16.54;76.93;99674.22;20226147;29;20048;-85
2023/01/12 20:34:07;;;;;;;1.80;0.80;;;;;;;16.30;76.89;99661.47;20213215;29;20055;-86
2023/01/12 20:44:13;;;;;;;2.78;0.93;;;;;;;16.51;76.93;99677.22;20228145;29;20503;-86
2023/01/12 20:54:15;;;;;;;1.58;0.50;;;;;;;16.50;76.83;99664.81;20228082;29;20060;-87
2023/01/12 21:04:18;;;;;;;1.02;0.47;;;;;;;16.48;76.83;99661.44;20226914;29;20048;-86
2023/01/12 21:14:22;;;;;;;1.83;0.70;;;;;;;16.48;76.37;99677.53;20242130;29;20451;-86
2023/01/12 21:24:24;;;;;;;1.73;0.60;;;;;;;16.37;76.62;99658.00;20242434;29;20057;-86
2023/01/12 21:34:25;;;;;;;1.30;0.60;;;;;;;16.46;76.64;99666.13;20240288;29;20112;-86
2023/01/12 21:44:27;;;;;;;1.42;0.68;;;;;;;16.38;76.67;99673.13;20240375;29;20044;-86
2023/01/12 21:54:29;;;;;;;1.60;0.60;;;;;;;16.35;76.60;99643.03;20240125;29;20057;-86
2023/01/12 22:04:31;;;;;;;1.23;0.40;;;;;;;16.40;76.23;99650.63;20239061;29;20072;-86
2023/01/12 22:14:32;;;;;;;0.75;0.40;;;;;;;16.35;76.08;99648.41;20221250;29;20551;-86
2023/01/12 22:24:34;;;;;;;0.47;0.40;;;;;;;16.16;75.69;99622.59;20205341;29;20048;-86
2023/01/12 22:34:36;;;;;;;0.85;0.60;;;;;;;16.42;75.50;99675.50;20219858;29;20107;-87
2023/01/12 22:44:37;;;;;;;0.95;0.50;;;;;;;16.41;75.16;99679.19;20235611;29;20108;-86
2023/01/12 22:54:39;;;;;;;1.50;0.60;;;;;;;16.41;74.74;99687.22;20218606;29;20108;-87
2023/01/12 23:04:41;;;;;;;2.55;0.80;;;;;;;16.40;74.55;99699.81;20235583;29;20060;-84
2023/01/12 23:14:43;;;;;;;2.30;0.50;;;;;;;16.38;74.46;99691.91;20217772;29;20056;-86
2023/01/12 23:24:44;;;;;;;2.20;0.70;;;;;;;16.23;74.05;99674.66;20234016;29;20056;-86
2023/01/12 23:34:46;;;;;;;2.45;0.65;;;;;;;16.38;73.88;99716.09;20234852;29;20720;-86
2023/01/12 23:44:47;;;;;;;3.75;0.80;;;;;;;16.08;73.49;99669.00;20217227;29;20500;-87
2023/01/12 23:54:52;;;;;;;2.75;0.90;;;;;;;16.21;73.31;99676.66;20239073;29;20579;-86
